sensor_id;sensor_type;location;lat;lon;timestamp;pressure;altitude;pressure_sealevel;temperature;humidity
13612;BME280;6877;51.436;6.774;2022-11-12T00:00:11;102802.03;;;6.21;93.99
13612;BME280;6877;51.436;6.774;2022-11-12T00:02:43;102806.41;;;6.22;94.58
13612;BME280;6877;51.436;6.774;2022-11-12T00:05:14;102802.13;;;6.24;94.31
13612;BME280;6877;51.436;6.774;2022-11-12T00:07:46;102806.81;;;6.36;94.70
13612;BME280;6877;51.436;6.774;2022-11-12T00:10:17;102807.13;;;6.45;94.15
13612;BME280;6877;51.436;6.774;2022-11-12T00:12:49;102804.69;;;6.50;93.69
13612;BME280;6877;51.436;6.774;2022-11-12T00:15:20;102809.97;;;6.53;93.73
13612;BME280;6877;51.436;6.774;2022-11-12T00:17:47;102815.06;;;6.50;93.20
13612;BME280;6877;51.436;6.774;2022-11-12T00:20:18;102815.69;;;6.43;93.36
13612;BME280;6877;51.436;6.774;2022-11-12T00:22:49;102808.50;;;6.34;93.87
13612;BME280;6877;51.436;6.774;2022-11-12T00:25:21;102812.72;;;6.31;93.69
13612;BME280;6877;51.436;6.774;2022-11-12T00:27:52;102814.38;;;6.29;94.10
13612;BME280;6877;51.436;6.774;2022-11-12T00:30:24;102811.63;;;6.24;94.13
13612;BME280;6877;51.436;6.774;2022-11-12T00:32:50;102814.28;;;6.25;94.39
13612;BME280;6877;51.436;6.774;2022-11-12T00:35:17;102816.03;;;6.26;94.17
13612;BME280;6877;51.436;6.774;2022-11-12T00:37:53;102813.44;;;6.26;94.23
13612;BME280;6877;51.436;6.774;2022-11-12T00:40:25;102812.47;;;6.23;94.36
13612;BME280;6877;51.436;6.774;2022-11-12T00:42:57;102822.84;;;6.21;94.44
13612;BME280;6877;51.436;6.774;2022-11-12T00:45:29;102820.75;;;6.11;94.15
13612;BME280;6877;51.436;6.774;2022-11-12T00:48:00;102826.69;;;6.07;94.65
13612;BME280;6877;51.436;6.774;2022-11-12T00:50:31;102821.38;;;6.04;95.20
13612;BME280;6877;51.436;6.774;2022-11-12T00:53:03;102815.13;;;5.99;95.01
13612;BME280;6877;51.436;6.774;2022-11-12T00:55:34;102818.34;;;5.92;95.19
13612;BME280;6877;51.436;6.774;2022-11-12T00:58:00;102816.38;;;5.85;95.53
13612;BME280;6877;51.436;6.774;2022-11-12T01:00:33;102817.09;;;5.80;95.96
13612;BME280;6877;51.436;6.774;2022-11-12T01:03:04;102819.59;;;5.77;96.27
13612;BME280;6877;51.436;6.774;2022-11-12T01:05:35;102806.59;;;5.77;96.67
13612;BME280;6877;51.436;6.774;2022-11-12T01:08:07;102818.75;;;5.78;96.52
13612;BME280;6877;51.436;6.774;2022-11-12T01:10:38;102824.06;;;5.81;96.74
13612;BME280;6877;51.436;6.774;2022-11-12T01:13:10;102824.94;;;5.82;97.02
13612;BME280;6877;51.436;6.774;2022-11-12T01:15:41;102824.06;;;5.81;97.20
13612;BME280;6877;51.436;6.774;2022-11-12T01:18:13;102822.22;;;5.79;96.78
13612;BME280;6877;51.436;6.774;2022-11-12T01:20:44;102831.00;;;5.82;97.20
13612;BME280;6877;51.436;6.774;2022-11-12T01:23:15;102826.56;;;5.78;96.92
13612;BME280;6877;51.436;6.774;2022-11-12T01:25:47;102826.44;;;5.75;97.07
13612;BME280;6877;51.436;6.774;2022-11-12T01:28:18;102826.44;;;5.75;97.14
13612;BME280;6877;51.436;6.774;2022-11-12T01:30:49;102826.34;;;5.72;97.16
13612;BME280;6877;51.436;6.774;2022-11-12T01:33:21;102829.66;;;5.68;97.17
13612;BME280;6877;51.436;6.774;2022-11-12T01:35:52;102832.19;;;5.67;97.27
13612;BME280;6877;51.436;6.774;2022-11-12T01:38:28;102832.94;;;5.63;97.41
13612;BME280;6877;51.436;6.774;2022-11-12T01:40:59;102826.09;;;5.65;97.62
13612;BME280;6877;51.436;6.774;2022-11-12T01:43:31;102821.88;;;5.68;97.61
13612;BME280;6877;51.436;6.774;2022-11-12T01:45:58;102815.81;;;5.68;97.55
13612;BME280;6877;51.436;6.774;2022-11-12T01:48:35;102814.09;;;5.68;97.70
13612;BME280;6877;51.436;6.774;2022-11-12T01:51:10;102815.69;;;5.65;97.51
13612;BME280;6877;51.436;6.774;2022-11-12T01:53:46;102817.28;;;5.61;97.55
13612;BME280;6877;51.436;6.774;2022-11-12T01:56:19;102813.75;;;5.59;97.85
13612;BME280;6877;51.436;6.774;2022-11-12T01:58:55;102810.94;;;5.53;97.65
13612;BME280;6877;51.436;6.774;2022-11-12T02:01:30;102813.31;;;5.47;97.50
13612;BME280;6877;51.436;6.774;2022-11-12T02:04:01;102814.97;;;5.45;97.93
13612;BME280;6877;51.436;6.774;2022-11-12T02:06:36;102816.75;;;5.46;98.03
13612;BME280;6877;51.436;6.774;2022-11-12T02:09:09;102807.94;;;5.42;97.90
13612;BME280;6877;51.436;6.774;2022-11-12T02:11:41;102804.38;;;5.39;98.17
13612;BME280;6877;51.436;6.774;2022-11-12T02:14:13;102795.56;;;5.33;97.99
13612;BME280;6877;51.436;6.774;2022-11-12T02:16:45;102800.53;;;5.27;98.18
13612;BME280;6877;51.436;6.774;2022-11-12T02:19:18;102803.91;;;5.26;98.31
13612;BME280;6877;51.436;6.774;2022-11-12T02:21:50;102797.84;;;5.26;98.45
13612;BME280;6877;51.436;6.774;2022-11-12T02:26:54;102795.22;;;5.24;98.48
13612;BME280;6877;51.436;6.774;2022-11-12T02:29:25;102806.44;;;5.23;98.21
13612;BME280;6877;51.436;6.774;2022-11-12T02:31:57;102796.06;;;5.23;98.41
13612;BME280;6877;51.436;6.774;2022-11-12T02:34:28;102793.47;;;5.23;98.47
13612;BME280;6877;51.436;6.774;2022-11-12T02:36:55;102803.91;;;5.26;98.28
13612;BME280;6877;51.436;6.774;2022-11-12T02:39:26;102804.16;;;5.32;98.21
13612;BME280;6877;51.436;6.774;2022-11-12T02:41:52;102815.66;;;5.39;98.04
13612;BME280;6877;51.436;6.774;2022-11-12T02:44:24;102809.53;;;5.37;97.50
13612;BME280;6877;51.436;6.774;2022-11-12T02:46:56;102810.50;;;5.41;97.67
13612;BME280;6877;51.436;6.774;2022-11-12T02:49:22;102804.66;;;5.46;97.49
13612;BME280;6877;51.436;6.774;2022-11-12T02:51:53;102814.28;;;5.49;96.83
13612;BME280;6877;51.436;6.774;2022-11-12T02:54:25;102819.47;;;5.49;96.82
13612;BME280;6877;51.436;6.774;2022-11-12T02:56:56;102809.88;;;5.48;96.70
13612;BME280;6877;51.436;6.774;2022-11-12T02:59:28;102803.78;;;5.46;96.49
13612;BME280;6877;51.436;6.774;2022-11-12T03:01:59;102802.63;;;5.38;96.43
13612;BME280;6877;51.436;6.774;2022-11-12T03:04:30;102804.94;;;5.30;96.58
13612;BME280;6877;51.436;6.774;2022-11-12T03:07:02;102803.03;;;5.26;96.85
13612;BME280;6877;51.436;6.774;2022-11-12T03:09:28;102791.56;;;5.19;96.75
13612;BME280;6877;51.436;6.774;2022-11-12T03:11:55;102800.28;;;5.21;96.97
13612;BME280;6877;51.436;6.774;2022-11-12T03:14:26;102803.91;;;5.26;96.92
13612;BME280;6877;51.436;6.774;2022-11-12T03:16:57;102813.50;;;5.27;96.83
13612;BME280;6877;51.436;6.774;2022-11-12T03:19:29;102807.44;;;5.27;96.63
13612;BME280;6877;51.436;6.774;2022-11-12T03:22:00;102807.31;;;5.24;96.42
13612;BME280;6877;51.436;6.774;2022-11-12T03:24:32;102803.78;;;5.22;96.38
13612;BME280;6877;51.436;6.774;2022-11-12T03:26:58;102796.88;;;5.22;96.18
13612;BME280;6877;51.436;6.774;2022-11-12T03:29:30;102793.34;;;5.20;96.06
13612;BME280;6877;51.436;6.774;2022-11-12T03:32:01;102797.63;;;5.20;96.13
13612;BME280;6877;51.436;6.774;2022-11-12T03:34:32;102794.88;;;5.15;95.92
13612;BME280;6877;51.436;6.774;2022-11-12T03:37:04;102798.19;;;5.11;96.02
13612;BME280;6877;51.436;6.774;2022-11-12T03:39:39;102792.91;;;5.08;95.99
13612;BME280;6877;51.436;6.774;2022-11-12T03:42:11;102795.53;;;5.09;96.26
13612;BME280;6877;51.436;6.774;2022-11-12T03:44:42;102792.94;;;5.09;95.82
13612;BME280;6877;51.436;6.774;2022-11-12T03:47:13;102793.69;;;5.07;95.68
13612;BME280;6877;51.436;6.774;2022-11-12T03:49:45;102788.47;;;5.05;95.62
13612;BME280;6877;51.436;6.774;2022-11-12T03:52:16;102791.00;;;5.04;95.49
13612;BME280;6877;51.436;6.774;2022-11-12T03:54:47;102781.44;;;5.03;95.27
13612;BME280;6877;51.436;6.774;2022-11-12T03:57:19;102786.03;;;5.10;95.19
13612;BME280;6877;51.436;6.774;2022-11-12T03:59:51;102786.16;;;5.13;94.64
13612;BME280;6877;51.436;6.774;2022-11-12T04:02:17;102780.91;;;5.11;94.76
13612;BME280;6877;51.436;6.774;2022-11-12T04:04:49;102784.53;;;5.17;94.35
13612;BME280;6877;51.436;6.774;2022-11-12T04:07:39;102781.06;;;5.16;94.02
13612;BME280;6877;51.436;6.774;2022-11-12T04:10:29;102778.53;;;5.18;93.68
13612;BME280;6877;51.436;6.774;2022-11-12T04:12:56;102781.19;;;5.19;93.64
13612;BME280;6877;51.436;6.774;2022-11-12T04:15:46;102775.06;;;5.17;93.60
13612;BME280;6877;51.436;6.774;2022-11-12T04:18:37;102768.06;;;5.15;93.46
13612;BME280;6877;51.436;6.774;2022-11-12T04:21:30;102760.06;;;5.10;93.46
13612;BME280;6877;51.436;6.774;2022-11-12T04:24:28;102757.38;;;5.07;93.57
13612;BME280;6877;51.436;6.774;2022-11-12T04:27:22;102764.28;;;5.06;93.27
13612;BME280;6877;51.436;6.774;2022-11-12T04:29:55;102759.84;;;5.04;93.29
13612;BME280;6877;51.436;6.774;2022-11-12T04:32:53;102757.34;;;5.05;93.32
13612;BME280;6877;51.436;6.774;2022-11-12T04:35:25;102756.56;;;5.08;93.13
13612;BME280;6877;51.436;6.774;2022-11-12T04:37:57;102755.66;;;5.07;92.86
13612;BME280;6877;51.436;6.774;2022-11-12T04:40:29;102752.19;;;5.07;92.79
13612;BME280;6877;51.436;6.774;2022-11-12T04:43:19;102753.84;;;5.05;92.51
13612;BME280;6877;51.436;6.774;2022-11-12T04:46:09;102754.63;;;5.02;92.59
13612;BME280;6877;51.436;6.774;2022-11-12T04:48:41;102750.28;;;5.01;92.70
13612;BME280;6877;51.436;6.774;2022-11-12T04:51:12;102754.56;;;5.01;92.45
13612;BME280;6877;51.436;6.774;2022-11-12T04:54:02;102754.56;;;5.01;92.51
13612;BME280;6877;51.436;6.774;2022-11-12T04:56:33;102755.34;;;4.98;92.56
13612;BME280;6877;51.436;6.774;2022-11-12T04:59:05;102757.94;;;4.98;92.77
13612;BME280;6877;51.436;6.774;2022-11-12T05:01:31;102747.50;;;4.97;92.54
13612;BME280;6877;51.436;6.774;2022-11-12T05:04:02;102750.16;;;4.98;92.45
13612;BME280;6877;51.436;6.774;2022-11-12T05:06:34;102745.00;;;5.00;92.35
13612;BME280;6877;51.436;6.774;2022-11-12T05:09:26;102735.47;;;4.99;92.24
13612;BME280;6877;51.436;6.774;2022-11-12T05:11:58;102738.88;;;4.98;92.10
13612;BME280;6877;51.436;6.774;2022-11-12T05:14:24;102738.75;;;4.95;92.10
13612;BME280;6877;51.436;6.774;2022-11-12T05:16:55;102735.94;;;4.88;92.16
13612;BME280;6877;51.436;6.774;2022-11-12T05:19:22;102740.25;;;4.88;92.21
13612;BME280;6877;51.436;6.774;2022-11-12T05:21:53;102732.34;;;4.85;92.58
13612;BME280;6877;51.436;6.774;2022-11-12T05:24:41;102729.84;;;4.86;92.46
13612;BME280;6877;51.436;6.774;2022-11-12T05:27:15;102729.75;;;4.85;92.48
13612;BME280;6877;51.436;6.774;2022-11-12T05:29:46;102733.16;;;4.82;92.49
13612;BME280;6877;51.436;6.774;2022-11-12T05:32:18;102733.81;;;4.77;92.64
13612;BME280;6877;51.436;6.774;2022-11-12T05:34:49;102726.72;;;4.73;92.46
13612;BME280;6877;51.436;6.774;2022-11-12T05:37:21;102719.66;;;4.69;92.82
13612;BME280;6877;51.436;6.774;2022-11-12T05:39:47;102714.31;;;4.64;92.72
13612;BME280;6877;51.436;6.774;2022-11-12T05:42:19;102718.53;;;4.62;93.13
13612;BME280;6877;51.436;6.774;2022-11-12T05:44:50;102719.41;;;4.62;93.09
13612;BME280;6877;51.436;6.774;2022-11-12T05:47:21;102715.91;;;4.60;93.03
13612;BME280;6877;51.436;6.774;2022-11-12T05:49:53;102710.53;;;4.56;92.87
13612;BME280;6877;51.436;6.774;2022-11-12T05:52:24;102704.28;;;4.51;93.08
13612;BME280;6877;51.436;6.774;2022-11-12T05:54:56;102704.19;;;4.48;93.45
13612;BME280;6877;51.436;6.774;2022-11-12T05:57:27;102699.88;;;4.48;93.43
13612;BME280;6877;51.436;6.774;2022-11-12T05:59:58;102701.41;;;4.43;93.33
13612;BME280;6877;51.436;6.774;2022-11-12T06:02:30;102705.72;;;4.43;93.50
13612;BME280;6877;51.436;6.774;2022-11-12T06:04:56;102706.56;;;4.41;93.81
13612;BME280;6877;51.436;6.774;2022-11-12T06:07:27;102713.50;;;4.43;93.73
13612;BME280;6877;51.436;6.774;2022-11-12T06:09:59;102723.03;;;4.44;94.07
13612;BME280;6877;51.436;6.774;2022-11-12T06:12:30;102722.16;;;4.43;93.75
13612;BME280;6877;51.436;6.774;2022-11-12T06:15:02;102730.66;;;4.39;93.46
13612;BME280;6877;51.436;6.774;2022-11-12T06:17:33;102727.84;;;4.34;94.21
13612;BME280;6877;51.436;6.774;2022-11-12T06:20:05;102737.34;;;4.34;94.06
13612;BME280;6877;51.436;6.774;2022-11-12T06:22:36;102737.69;;;4.43;95.17
13612;BME280;6877;51.436;6.774;2022-11-12T06:25:08;102731.16;;;4.53;94.51
13612;BME280;6877;51.436;6.774;2022-11-12T06:27:39;102749.00;;;4.68;94.79
13612;BME280;6877;51.436;6.774;2022-11-12T06:30:11;102750.88;;;4.72;94.48
13612;BME280;6877;51.436;6.774;2022-11-12T06:32:49;102750.00;;;4.71;94.20
13612;BME280;6877;51.436;6.774;2022-11-12T06:35:21;102753.31;;;4.67;93.91
13612;BME280;6877;51.436;6.774;2022-11-12T06:37:52;102747.06;;;4.62;94.22
13612;BME280;6877;51.436;6.774;2022-11-12T06:40:25;102756.44;;;4.58;94.19
13612;BME280;6877;51.436;6.774;2022-11-12T06:42:57;102758.72;;;4.51;94.48
13612;BME280;6877;51.436;6.774;2022-11-12T06:45:29;102755.09;;;4.46;94.50
13612;BME280;6877;51.436;6.774;2022-11-12T06:48:00;102756.72;;;4.44;95.07
13612;BME280;6877;51.436;6.774;2022-11-12T06:50:32;102759.31;;;4.44;95.20
13612;BME280;6877;51.436;6.774;2022-11-12T06:53:03;102754.25;;;4.47;95.47
13612;BME280;6877;51.436;6.774;2022-11-12T06:55:29;102758.56;;;4.46;95.60
13612;BME280;6877;51.436;6.774;2022-11-12T06:58:01;102749.06;;;4.47;95.62
13612;BME280;6877;51.436;6.774;2022-11-12T07:00:32;102757.81;;;4.49;95.88
13612;BME280;6877;51.436;6.774;2022-11-12T07:03:07;102756.25;;;4.54;95.64
13612;BME280;6877;51.436;6.774;2022-11-12T07:05:39;102763.47;;;4.61;95.77
13612;BME280;6877;51.436;6.774;2022-11-12T07:08:10;102762.63;;;4.62;95.43
13612;BME280;6877;51.436;6.774;2022-11-12T07:10:41;102768.78;;;4.64;95.47
13612;BME280;6877;51.436;6.774;2022-11-12T07:13:13;102774.06;;;4.67;95.58
13612;BME280;6877;51.436;6.774;2022-11-12T07:15:44;102770.59;;;4.67;95.40
13612;BME280;6877;51.436;6.774;2022-11-12T07:18:15;102772.28;;;4.66;95.30
13612;BME280;6877;51.436;6.774;2022-11-12T07:20:47;102774.94;;;4.68;95.34
13612;BME280;6877;51.436;6.774;2022-11-12T07:23:18;102778.38;;;4.67;95.29
13612;BME280;6877;51.436;6.774;2022-11-12T07:26:01;102779.16;;;4.64;95.49
13612;BME280;6877;51.436;6.774;2022-11-12T07:28:33;102775.72;;;4.65;95.42
13612;BME280;6877;51.436;6.774;2022-11-12T07:31:07;102775.72;;;4.65;95.63
13612;BME280;6877;51.436;6.774;2022-11-12T07:33:40;102779.25;;;4.67;95.44
13612;BME280;6877;51.436;6.774;2022-11-12T07:36:17;102782.78;;;4.69;95.48
13612;BME280;6877;51.436;6.774;2022-11-12T07:38:52;102786.44;;;4.74;95.40
13612;BME280;6877;51.436;6.774;2022-11-12T07:41:24;102788.31;;;4.78;95.91
13612;BME280;6877;51.436;6.774;2022-11-12T07:43:55;102788.38;;;4.80;95.22
13612;BME280;6877;51.436;6.774;2022-11-12T07:46:27;102784.25;;;4.85;94.91
13612;BME280;6877;51.436;6.774;2022-11-12T07:48:58;102788.78;;;4.91;95.32
13612;BME280;6877;51.436;6.774;2022-11-12T07:51:30;102785.47;;;4.95;94.75
13612;BME280;6877;51.436;6.774;2022-11-12T07:54:01;102781.31;;;4.98;94.80
13612;BME280;6877;51.436;6.774;2022-11-12T07:56:33;102780.63;;;5.04;94.66
13612;BME280;6877;51.436;6.774;2022-11-12T07:59:04;102781.72;;;5.10;94.33
13612;BME280;6877;51.436;6.774;2022-11-12T08:01:39;102783.78;;;5.19;94.43
13612;BME280;6877;51.436;6.774;2022-11-12T08:04:11;102780.63;;;5.28;94.06
13612;BME280;6877;51.436;6.774;2022-11-12T08:06:44;102768.84;;;5.38;93.83
13612;BME280;6877;51.436;6.774;2022-11-12T08:09:15;102765.06;;;5.53;93.34
13612;BME280;6877;51.436;6.774;2022-11-12T08:11:42;102770.63;;;5.64;92.86
13612;BME280;6877;51.436;6.774;2022-11-12T08:14:13;102771.03;;;5.76;92.70
13612;BME280;6877;51.436;6.774;2022-11-12T08:16:45;102766.34;;;5.92;92.28
13612;BME280;6877;51.436;6.774;2022-11-12T08:19:11;102772.94;;;6.06;91.88
13612;BME280;6877;51.436;6.774;2022-11-12T08:21:43;102771.72;;;6.22;91.61
13612;BME280;6877;51.436;6.774;2022-11-12T08:24:14;102783.00;;;6.80;92.13
13612;BME280;6877;51.436;6.774;2022-11-12T08:26:46;102772.97;;;7.88;88.46
13612;BME280;6877;51.436;6.774;2022-11-12T08:29:12;102784.75;;;8.85;84.80
13612;BME280;6877;51.436;6.774;2022-11-12T08:31:45;102777.34;;;10.02;79.51
13612;BME280;6877;51.436;6.774;2022-11-12T08:34:16;102764.69;;;10.90;73.64
13612;BME280;6877;51.436;6.774;2022-11-12T08:36:48;102776.91;;;10.89;70.83
13612;BME280;6877;51.436;6.774;2022-11-12T08:39:19;102770.22;;;10.46;71.58
13612;BME280;6877;51.436;6.774;2022-11-12T08:41:50;102768.81;;;10.13;71.83
13612;BME280;6877;51.436;6.774;2022-11-12T08:44:22;102778.00;;;9.87;72.35
13612;BME280;6877;51.436;6.774;2022-11-12T08:46:53;102781.00;;;9.60;73.29
13612;BME280;6877;51.436;6.774;2022-11-12T08:49:24;102780.78;;;9.47;74.06
13612;BME280;6877;51.436;6.774;2022-11-12T08:51:56;102784.53;;;9.62;74.53
13612;BME280;6877;51.436;6.774;2022-11-12T08:54:28;102790.34;;;9.95;73.96
13612;BME280;6877;51.436;6.774;2022-11-12T08:57:00;102796.88;;;10.24;73.36
13612;BME280;6877;51.436;6.774;2022-11-12T08:59:26;102801.97;;;10.69;71.34
13612;BME280;6877;51.436;6.774;2022-11-12T09:01:53;102805.75;;;10.93;70.52
13612;BME280;6877;51.436;6.774;2022-11-12T09:04:24;102802.75;;;11.33;69.32
13612;BME280;6877;51.436;6.774;2022-11-12T09:06:56;102793.75;;;11.94;66.87
13612;BME280;6877;51.436;6.774;2022-11-12T09:09:22;102798.47;;;12.38;64.87
13612;BME280;6877;51.436;6.774;2022-11-12T09:11:53;102796.13;;;12.87;63.15
13612;BME280;6877;51.436;6.774;2022-11-12T09:14:25;102795.22;;;12.82;61.66
13612;BME280;6877;51.436;6.774;2022-11-12T09:16:56;102790.56;;;12.35;62.08
13612;BME280;6877;51.436;6.774;2022-11-12T09:19:27;102790.38;;;12.05;63.22
13612;BME280;6877;51.436;6.774;2022-11-12T09:21:59;102793.47;;;11.66;63.93
13612;BME280;6877;51.436;6.774;2022-11-12T09:24:30;102788.88;;;11.44;65.23
13612;BME280;6877;51.436;6.774;2022-11-12T09:27:02;102793.97;;;11.31;65.30
13612;BME280;6877;51.436;6.774;2022-11-12T09:29:33;102796.78;;;11.47;65.39
13612;BME280;6877;51.436;6.774;2022-11-12T09:32:04;102792.38;;;12.40;63.84
13612;BME280;6877;51.436;6.774;2022-11-12T09:34:36;102785.81;;;13.36;61.28
13612;BME280;6877;51.436;6.774;2022-11-12T09:37:07;102790.22;;;14.55;57.75
13612;BME280;6877;51.436;6.774;2022-11-12T09:39:39;102788.19;;;16.38;54.73
13612;BME280;6877;51.436;6.774;2022-11-12T09:42:12;102786.91;;;18.01;49.39
13612;BME280;6877;51.436;6.774;2022-11-12T09:45:02;102786.66;;;18.63;47.31
13612;BME280;6877;51.436;6.774;2022-11-12T09:52:47;102781.72;;;23.31;37.39
13612;BME280;6877;51.436;6.774;2022-11-12T09:55:33;102787.41;;;24.51;34.99
13612;BME280;6877;51.436;6.774;2022-11-12T09:58:08;102790.41;;;25.02;33.07
13612;BME280;6877;51.436;6.774;2022-11-12T10:00:50;102796.34;;;25.08;32.25
13612;BME280;6877;51.436;6.774;2022-11-12T10:06:21;102792.97;;;26.14;30.09
13612;BME280;6877;51.436;6.774;2022-11-12T10:09:04;102783.13;;;25.60;29.88
13612;BME280;6877;51.436;6.774;2022-11-12T10:23:52;102770.88;;;25.18;29.16
13612;BME280;6877;51.436;6.774;2022-11-12T10:26:24;102763.22;;;23.91;30.83
13612;BME280;6877;51.436;6.774;2022-11-12T10:31:50;102763.06;;;20.06;36.74
13612;BME280;6877;51.436;6.774;2022-11-12T10:34:23;102767.78;;;18.79;38.82
13612;BME280;6877;51.436;6.774;2022-11-12T10:36:58;102761.66;;;17.80;41.19
13612;BME280;6877;51.436;6.774;2022-11-12T10:39:38;102757.41;;;17.10;42.47
13612;BME280;6877;51.436;6.774;2022-11-12T10:42:16;102756.19;;;16.66;43.42
13612;BME280;6877;51.436;6.774;2022-11-12T10:44:48;102756.63;;;16.28;44.11
13612;BME280;6877;51.436;6.774;2022-11-12T10:52:35;102739.59;;;15.61;45.88
13612;BME280;6877;51.436;6.774;2022-11-12T10:55:25;102739.66;;;15.47;46.56
13612;BME280;6877;51.436;6.774;2022-11-12T10:58:03;102733.53;;;15.46;46.95
13612;BME280;6877;51.436;6.774;2022-11-12T11:00:36;102729.13;;;15.47;46.73
13612;BME280;6877;51.436;6.774;2022-11-12T11:03:27;102735.41;;;15.32;46.71
13612;BME280;6877;51.436;6.774;2022-11-12T11:08:42;102724.06;;;15.18;47.61
13612;BME280;6877;51.436;6.774;2022-11-12T11:11:23;102725.81;;;15.16;47.94
13612;BME280;6877;51.436;6.774;2022-11-12T11:13:57;102729.31;;;15.19;48.27
13612;BME280;6877;51.436;6.774;2022-11-12T11:19:20;102716.88;;;15.37;48.26
13612;BME280;6877;51.436;6.774;2022-11-12T11:22:01;102723.84;;;15.48;48.19
13612;BME280;6877;51.436;6.774;2022-11-12T11:30:17;102712.34;;;15.54;48.63
13612;BME280;6877;51.436;6.774;2022-11-12T11:41:19;102700.84;;;15.64;49.50
13612;BME280;6877;51.436;6.774;2022-11-12T11:47:32;102696.47;;;15.62;49.57
13612;BME280;6877;51.436;6.774;2022-11-12T11:50:18;102694.72;;;15.67;49.77
13612;BME280;6877;51.436;6.774;2022-11-12T11:55:50;102698.16;;;15.72;49.96
13612;BME280;6877;51.436;6.774;2022-11-12T11:58:43;102701.72;;;15.68;50.16
13612;BME280;6877;51.436;6.774;2022-11-12T12:01:49;102694.69;;;15.68;49.90
13612;BME280;6877;51.436;6.774;2022-11-12T12:07:13;102690.06;;;15.89;50.15
13612;BME280;6877;51.436;6.774;2022-11-12T12:09:59;102691.81;;;15.91;49.86
13612;BME280;6877;51.436;6.774;2022-11-12T12:15:33;102682.97;;;15.97;49.77
13612;BME280;6877;51.436;6.774;2022-11-12T12:23:30;102678.59;;;15.96;49.70
13612;BME280;6877;51.436;6.774;2022-11-12T12:26:10;102676.78;;;15.99;50.15
13612;BME280;6877;51.436;6.774;2022-11-12T12:28:52;102681.09;;;16.08;50.23
13612;BME280;6877;51.436;6.774;2022-11-12T12:31:29;102676.63;;;16.15;50.16
13612;BME280;6877;51.436;6.774;2022-11-12T12:34:18;102667.75;;;16.19;50.09
13612;BME280;6877;51.436;6.774;2022-11-12T12:36:58;102678.31;;;16.20;50.04
13612;BME280;6877;51.436;6.774;2022-11-12T12:40:10;102667.84;;;16.10;49.67
13612;BME280;6877;51.436;6.774;2022-11-12T12:42:46;102671.44;;;16.04;50.20
13612;BME280;6877;51.436;6.774;2022-11-12T12:48:00;102663.63;;;15.92;50.55
13612;BME280;6877;51.436;6.774;2022-11-12T12:50:36;102660.16;;;15.88;50.99
13612;BME280;6877;51.436;6.774;2022-11-12T12:56:02;102655.84;;;15.81;51.04
13612;BME280;6877;51.436;6.774;2022-11-12T13:11:50;102648.69;;;15.92;50.74
13612;BME280;6877;51.436;6.774;2022-11-12T13:19:37;102656.63;;;15.91;50.79
13612;BME280;6877;51.436;6.774;2022-11-12T13:35:19;102647.91;;;15.81;51.74
13612;BME280;6877;51.436;6.774;2022-11-12T13:40:50;102651.44;;;15.82;51.03
13612;BME280;6877;51.436;6.774;2022-11-12T13:46:28;102646.22;;;15.77;51.22
13612;BME280;6877;51.436;6.774;2022-11-12T13:49:00;102646.25;;;15.74;51.52
13612;BME280;6877;51.436;6.774;2022-11-12T13:51:46;102651.53;;;15.72;51.45
13612;BME280;6877;51.436;6.774;2022-11-12T13:54:32;102648.00;;;15.72;51.43
13612;BME280;6877;51.436;6.774;2022-11-12T14:00:18;102641.88;;;15.65;51.63
13612;BME280;6877;51.436;6.774;2022-11-12T14:02:56;102643.72;;;15.59;51.76
13612;BME280;6877;51.436;6.774;2022-11-12T14:05:26;102630.50;;;15.59;51.79
13612;BME280;6877;51.436;6.774;2022-11-12T14:08:23;102640.19;;;15.57;51.56
13612;BME280;6877;51.436;6.774;2022-11-12T14:16:33;102623.59;;;15.44;51.87
13612;BME280;6877;51.436;6.774;2022-11-12T14:24:33;102626.31;;;15.36;52.18
13612;BME280;6877;51.436;6.774;2022-11-12T14:27:38;102625.47;;;15.31;52.34
13612;BME280;6877;51.436;6.774;2022-11-12T14:33:09;102620.28;;;15.19;52.72
13612;BME280;6877;51.436;6.774;2022-11-12T14:35:41;102613.34;;;15.13;52.96
13612;BME280;6877;51.436;6.774;2022-11-12T14:38:32;102605.47;;;15.05;53.29
13612;BME280;6877;51.436;6.774;2022-11-12T14:48:58;102602.94;;;14.87;54.03
13612;BME280;6877;51.436;6.774;2022-11-12T14:51:45;102590.72;;;14.78;54.07
13612;BME280;6877;51.436;6.774;2022-11-12T14:54:44;102593.38;;;14.74;54.61
13612;BME280;6877;51.436;6.774;2022-11-12T14:57:27;102589.06;;;14.64;55.11
13612;BME280;6877;51.436;6.774;2022-11-12T15:00:16;102584.69;;;14.59;55.14
13612;BME280;6877;51.436;6.774;2022-11-12T15:02:48;102594.38;;;14.57;55.26
13612;BME280;6877;51.436;6.774;2022-11-12T15:05:17;102594.41;;;14.51;55.75
13612;BME280;6877;51.436;6.774;2022-11-12T15:15:53;102596.31;;;14.16;57.04
13612;BME280;6877;51.436;6.774;2022-11-12T15:18:26;102602.47;;;14.04;57.65
13612;BME280;6877;51.436;6.774;2022-11-12T15:23:51;102585.91;;;13.76;58.47
13612;BME280;6877;51.436;6.774;2022-11-12T15:28:58;102594.72;;;13.50;59.43
13612;BME280;6877;51.436;6.774;2022-11-12T15:31:47;102586.84;;;13.38;60.15
13612;BME280;6877;51.436;6.774;2022-11-12T15:39:54;102576.28;;;13.01;61.78
13612;BME280;6877;51.436;6.774;2022-11-12T15:45:09;102558.75;;;12.75;62.68
13612;BME280;6877;51.436;6.774;2022-11-12T15:47:43;102565.75;;;12.64;63.03
13612;BME280;6877;51.436;6.774;2022-11-12T15:52:42;102559.56;;;12.42;63.94
13612;BME280;6877;51.436;6.774;2022-11-12T15:55:15;102559.53;;;12.30;64.39
13612;BME280;6877;51.436;6.774;2022-11-12T15:57:44;102556.84;;;12.19;65.08
13612;BME280;6877;51.436;6.774;2022-11-12T16:00:19;102557.69;;;12.08;65.44
13612;BME280;6877;51.436;6.774;2022-11-12T16:02:55;102566.38;;;11.97;66.01
13612;BME280;6877;51.436;6.774;2022-11-12T16:05:22;102567.22;;;11.90;66.46
13612;BME280;6877;51.436;6.774;2022-11-12T16:07:54;102562.78;;;11.81;66.70
13612;BME280;6877;51.436;6.774;2022-11-12T16:10:25;102565.34;;;11.72;67.13
13612;BME280;6877;51.436;6.774;2022-11-12T16:12:56;102567.88;;;11.60;67.91
13612;BME280;6877;51.436;6.774;2022-11-12T16:15:28;102566.97;;;11.52;67.96
13612;BME280;6877;51.436;6.774;2022-11-12T16:18:00;102559.03;;;11.44;68.49
13612;BME280;6877;51.436;6.774;2022-11-12T16:20:33;102560.75;;;11.37;68.91
13612;BME280;6877;51.436;6.774;2022-11-12T16:23:05;102562.47;;;11.32;69.08